»·PEaware :: N3939X KBFL-KMHV

N3939X :: KBFL-KMHV

FLIGHT INFORMATION

Flight Status: Arrived
Operator: Privately registered:
United States
More flights under this callsign
Pilot: Tanner H. (43779)
Aircraft: PIPER PA-28 CHEROKEE ARCHER
(P28A)
More flights by this aircraft type
Origin: KBFL Meadows
United States
Destination: KMHV Mojave
United States
More flights between these airports :: More routes between these airports
Route:
File this flight plan on PilotEdge
Remarks:
Altitude:
(Current/Filed)
9,500ft
Speed:
(Current/Filed)
108kts
Departed: 12-Feb-24 08:10 PM
Arrived: 12-Feb-24 08:47 PM
Distance/Time
Traveled:
50nm/0:36
Distance/Time
To Go:
Arrived

Flight Plot

Page will automatically refresh every two minutes.


Map Options




Map Legend


Flown Route
Filed Route
Departure Airport
Arrival Airport
Navaid (VOR, NDB)
Fix

Horizontal Profiles

Position Reports

Time Latitude Longitude Heading Altitude Ground
Speed
12-Feb-24 19:49 35.435069 -119.054066 313 488ft 0kts
12-Feb-24 19:50 35.435069 -119.054066 313 488ft 0kts
12-Feb-24 19:51 35.435069 -119.054066 313 488ft 0kts
12-Feb-24 19:52 35.435069 -119.054066 313 488ft 0kts
12-Feb-24 19:53 35.435069 -119.054066 313 488ft 0kts
12-Feb-24 19:54 35.435069 -119.054066 313 488ft 0kts
12-Feb-24 19:55 35.435069 -119.054066 313 488ft 0kts
12-Feb-24 19:56 35.435069 -119.054066 313 488ft 0kts
12-Feb-24 19:57 35.435069 -119.054066 313 488ft 0kts
12-Feb-24 19:58 35.435069 -119.054066 313 488ft 0kts
12-Feb-24 19:59 35.435069 -119.054066 313 488ft 0kts
12-Feb-24 20:00 35.435069 -119.054066 313 488ft 0kts
12-Feb-24 20:01 35.435069 -119.054066 313 488ft 0kts
12-Feb-24 20:02 35.435069 -119.054066 313 488ft 0kts
12-Feb-24 20:03 35.434725 -119.054343 228 487ft 7kts
12-Feb-24 20:04 35.432468 -119.052270 135 481ft 14kts
12-Feb-24 20:05 35.429820 -119.049074 135 481ft 12kts
12-Feb-24 20:06 35.426964 -119.045626 136 474ft 15kts
12-Feb-24 20:07 35.425819 -119.044684 223 470ft 0kts
12-Feb-24 20:08 35.425819 -119.044684 223 470ft 0kts
12-Feb-24 20:09 35.426843 -119.047773 316 479ft 44kts
12-Feb-24 20:10 35.444845 -119.067028 345 1220ft 90kts
12-Feb-24 20:11 35.447975 -119.046609 122 2115ft 96kts
12-Feb-24 20:12 35.440290 -119.017341 115 3034ft 91kts
12-Feb-24 20:13 35.428550 -118.989758 116 3921ft 92kts
12-Feb-24 20:14 35.416915 -118.962906 117 4825ft 86kts
12-Feb-24 20:15 35.406313 -118.938394 117 5683ft 74kts
12-Feb-24 20:16 35.397458 -118.914698 127 6165ft 93kts
12-Feb-24 20:17 35.383936 -118.886966 120 6790ft 95kts
12-Feb-24 20:18 35.371193 -118.858112 119 7375ft 96kts
12-Feb-24 20:19 35.358618 -118.829347 118 7973ft 95kts
12-Feb-24 20:20 35.346274 -118.801103 118 8562ft 92kts
12-Feb-24 20:21 35.334342 -118.773802 117 9159ft 89kts
12-Feb-24 20:22 35.322235 -118.746245 118 9523ft 107kts
12-Feb-24 20:23 35.306840 -118.711188 118 9529ft 120kts
12-Feb-24 20:24 35.290797 -118.674631 118 9504ft 122kts
12-Feb-24 20:25 35.274785 -118.638189 118 9508ft 121kts
12-Feb-24 20:26 35.258773 -118.601771 117 9506ft 122kts
12-Feb-24 20:27 35.242705 -118.565275 117 9508ft 121kts
12-Feb-24 20:28 35.226703 -118.528967 117 9527ft 121kts
12-Feb-24 20:29 35.212011 -118.495663 117 8760ft 106kts
12-Feb-24 20:30 35.198107 -118.464178 117 7944ft 104kts
12-Feb-24 20:31 35.184401 -118.433190 118 7155ft 103kts
12-Feb-24 20:32 35.170726 -118.402259 118 6367ft 103kts
12-Feb-24 20:33 35.157001 -118.371279 118 5557ft 104kts
12-Feb-24 20:34 35.144007 -118.341871 117 5369ft 86kts
12-Feb-24 20:35 35.128652 -118.324210 198 5393ft 91kts
12-Feb-24 20:36 35.105610 -118.324708 105 5387ft 94kts
12-Feb-24 20:37 35.097504 -118.292889 85 4834ft 104kts
12-Feb-24 20:38 35.105340 -118.260893 86 5456ft 105kts
12-Feb-24 20:39 35.088332 -118.233110 137 5892ft 107kts
12-Feb-24 20:40 35.065395 -118.206314 132 4769ft 119kts
12-Feb-24 20:41 35.048407 -118.174441 103 3722ft 122kts
12-Feb-24 20:42 35.027656 -118.143688 134 3919ft 118kts
12-Feb-24 20:43 35.016134 -118.116027 43 3422ft 94kts
12-Feb-24 20:44 35.033922 -118.117934 317 3010ft 73kts
12-Feb-24 20:45 35.047504 -118.134199 317 2695ft 56kts
12-Feb-24 20:47 35.053958 -118.141999 315 2733ft 38kts
12-Feb-24 20:48 35.057612 -118.147819 264 2748ft 0kts
12-Feb-24 20:49 35.057617 -118.148001 269 2748ft 8kts
12-Feb-24 20:50 35.057629 -118.153856 275 2759ft 16kts
12-Feb-24 20:51 35.057077 -118.155083 270 2762ft 0kts
12-Feb-24 20:52 35.057077 -118.155083 270 2762ft 0kts

Navigation Log

Ident Type
Flight plan parsing failed, navigation log unavailable